Flight Number: AVA2023 Duration: 1:00
Departure: Montreal Intl Airport (CYUL) at 04:15 Distance: 274.172 Nm
Arrival: Toronto Pearson Int`L. (CYYZ) at 05:15 Equipment: CRJ700

Weather Information
Montreal / Pierre Elliot Trudeau International Airport, Que, Canada (CYUL) 45-28N 073-45W 36M Jul 27, 2021 - 06:00 PM EDT / 2021.07.27 2200 UTC
Wind: from the WSW (240 degrees) at 6 MPH (5 KT):0
Visibility: 30 mile(s):0
Sky conditions: mostly cloudy Temperature: 69 F (21 C) Dew Point: 57 F (14 C) Relative Humidity: 64% Pressure (altimeter): 29.95 in. Hg (1014 hPa)
ob: CYUL 272200Z 24005KT 30SM FEW040 FEW070 SCT120 BKN250 21/14 A2995 RMK CF1AC1AC2CI2 CF TR SLP143 DENSITY ALT 800FT cycle: 22
Sunrise: 09:38 Sunset: 00:24 (UTC)

Toronto Pearson Int'L. Ont., Canada (CYYZ) 43-40N 079-38W 173M Jul 27, 2021 - 06:00 PM EDT / 2021.07.27 2200 UTC
Wind: from the NNE (030 degrees) at 10 MPH (9 KT):0
Visibility: 15 mile(s):0
Sky conditions: mostly cloudy Temperature: 75 F (24 C) Dew Point: 66 F (19 C) Relative Humidity: 73% Pressure (altimeter): 29.95 in. Hg (1014 hPa)
ob: CYYZ 272200Z 03009KT 15SM BKN030 BKN060 24/19 A2995 RMK SC5SC1 SLP144 DENSITY ALT 1700FT cycle: 22
Sunrise: 10:06 Sunset: 00:43 (UTC)

TAF:2021/07/27 21:40 TAF CYYZ 272038Z 2721/2824 18006KT P6SM FEW020 BKN060 TEMPO 2721/2722 5SM -SHRA BR BKN020 BKN060 BECMG 2722/2724 VRB03KT FM280600 03006KT P6SM BKN020 PROB30 2808/2813 2SM BR BKN006 FM281500 VRB03KT P6SM BKN030 BECMG 2816/2818 14008KT RMK NXT FCST BY 280000Z

This route has never been flown.

Route map